createdAt,value
2018-05-11T00:00:16.616Z,60.04
2018-05-11T00:02:42.847Z,59.85
2018-05-11T00:05:09.526Z,59.66
2018-05-11T00:07:35.754Z,59.79
2018-05-11T00:10:02.164Z,60.05
2018-05-11T00:12:28.466Z,60.10
2018-05-11T00:14:54.690Z,60.09
2018-05-11T00:17:21.301Z,60.35
2018-05-11T00:19:47.543Z,60.16
2018-05-11T00:22:13.897Z,60.04
2018-05-11T00:24:40.235Z,60.68
2018-05-11T00:27:07.612Z,60.17
2018-05-11T00:29:34.027Z,60.13
2018-05-11T00:32:00.241Z,60.12
2018-05-11T00:34:26.826Z,60.16
2018-05-11T00:36:53.121Z,60.05
2018-05-11T00:39:19.358Z,59.96
2018-05-11T00:41:45.758Z,59.96
2018-05-11T00:44:11.995Z,60.22
2018-05-11T00:46:38.444Z,60.58
2018-05-11T00:49:04.726Z,60.61
2018-05-11T00:51:30.989Z,60.01
2018-05-11T00:53:57.519Z,59.92
2018-05-11T00:56:23.755Z,59.90
2018-05-11T00:58:50.552Z,59.92
2018-05-11T01:01:16.817Z,59.52
2018-05-11T01:03:43.122Z,59.40
2018-05-11T01:06:09.698Z,59.33
2018-05-11T01:08:35.927Z,59.67
2018-05-11T01:11:02.426Z,59.60
2018-05-11T01:13:28.747Z,59.26
2018-05-11T01:15:55.003Z,58.81
2018-05-11T01:18:21.556Z,58.75
2018-05-11T01:20:47.786Z,58.72
2018-05-11T01:23:14.195Z,58.90
2018-05-11T01:25:40.503Z,59.18
2018-05-11T01:28:06.754Z,58.97
2018-05-11T01:30:33.329Z,58.75
2018-05-11T01:32:59.591Z,58.37
2018-05-11T01:35:25.918Z,58.10
2018-05-11T01:37:52.299Z,58.37
2018-05-11T01:40:18.555Z,58.51
2018-05-11T01:42:45.175Z,58.61
2018-05-11T01:45:11.469Z,58.41
2018-05-11T01:47:37.750Z,58.49
2018-05-11T01:50:04.219Z,58.66
2018-05-11T01:52:30.443Z,58.71
2018-05-11T01:54:57.111Z,58.74
2018-05-11T01:57:23.364Z,58.67
2018-05-11T01:59:49.673Z,58.59
2018-05-11T02:02:16.106Z,58.05
2018-05-11T02:04:42.325Z,57.92
2018-05-11T02:07:08.961Z,57.36
2018-05-11T02:09:35.201Z,57.37
2018-05-11T02:12:01.564Z,57.41
2018-05-11T02:14:27.946Z,57.46
2018-05-11T02:16:54.250Z,57.28
2018-05-11T02:19:20.787Z,57.18
2018-05-11T02:21:47.034Z,57.24
2018-05-11T02:24:13.289Z,56.79
2018-05-11T02:26:39.799Z,56.71
2018-05-11T02:29:06.115Z,56.80
2018-05-11T02:31:32.546Z,56.44
2018-05-11T02:33:58.820Z,56.34
2018-05-11T02:36:25.069Z,56.63
2018-05-11T02:38:51.734Z,56.68
2018-05-11T02:41:17.998Z,56.96
2018-05-11T02:43:44.467Z,56.80
2018-05-11T02:46:10.803Z,56.81
2018-05-11T02:48:37.022Z,56.66
2018-05-11T02:51:03.619Z,56.62
2018-05-11T02:53:29.834Z,56.78
2018-05-11T02:55:56.202Z,56.83
2018-05-11T02:58:22.496Z,56.57
2018-05-11T03:00:48.738Z,56.50
2018-05-11T03:03:15.336Z,56.27
2018-05-11T03:05:41.633Z,56.33
2018-05-11T03:08:08.012Z,56.40
2018-05-11T03:10:34.453Z,56.31
2018-05-11T03:13:00.683Z,56.56
2018-05-11T03:15:27.227Z,56.60
2018-05-11T03:17:53.601Z,56.70
2018-05-11T03:20:19.943Z,56.37
2018-05-11T03:22:46.377Z,56.56
2018-05-11T03:25:12.626Z,56.59
2018-05-11T03:27:39.210Z,56.55
2018-05-11T03:30:05.551Z,56.37
2018-05-11T03:32:31.846Z,56.49
2018-05-11T03:34:58.279Z,56.71
2018-05-11T03:37:24.519Z,56.98
2018-05-11T03:39:51.133Z,57.17
2018-05-11T03:42:18.542Z,57.34
2018-05-11T03:44:45.185Z,57.37
2018-05-11T03:47:11.443Z,57.24
2018-05-11T03:49:37.744Z,57.17
2018-05-11T03:52:04.134Z,57.50
2018-05-11T03:54:30.358Z,57.42
2018-05-11T03:56:56.944Z,57.47
2018-05-11T03:59:23.192Z,57.64
2018-05-11T04:02:01.423Z,57.58
2018-05-11T04:04:39.918Z,57.39
2018-05-11T04:07:18.264Z,57.42
2018-05-11T04:09:44.799Z,57.33
2018-05-11T04:12:11.110Z,57.69
2018-05-11T04:14:37.322Z,57.15
2018-05-11T04:17:03.799Z,56.73
2018-05-11T04:19:31.174Z,56.57
2018-05-11T04:21:57.635Z,56.65
2018-05-11T04:24:23.885Z,56.83
2018-05-11T04:26:50.195Z,56.47
2018-05-11T04:29:16.510Z,56.65
2018-05-11T04:31:42.722Z,56.57
2018-05-11T04:34:09.292Z,56.54
2018-05-11T04:36:35.516Z,56.83
2018-05-11T04:39:01.913Z,56.96
2018-05-11T04:41:28.294Z,57.36
2018-05-11T04:43:54.548Z,57.50
2018-05-11T04:46:21.083Z,56.77
2018-05-11T04:48:47.314Z,57.22
2018-05-11T04:51:13.546Z,57.06
2018-05-11T04:53:39.958Z,57.29
2018-05-11T04:56:06.548Z,57.38
2018-05-11T04:58:33.039Z,57.58
2018-05-11T05:00:59.580Z,57.46
2018-05-11T05:03:26.219Z,57.78
2018-05-11T05:05:52.831Z,58.45
2018-05-11T05:08:19.355Z,58.86
2018-05-11T05:10:45.943Z,58.99
2018-05-11T05:13:12.160Z,58.78
2018-05-11T05:15:38.387Z,58.38
2018-05-11T05:18:04.635Z,57.86
2018-05-11T05:20:30.859Z,58.61
2018-05-11T05:22:57.103Z,58.34
2018-05-11T05:25:23.324Z,58.11
2018-05-11T05:27:49.622Z,57.80
2018-05-11T05:30:15.862Z,57.86
2018-05-11T05:32:42.088Z,57.27
2018-05-11T05:35:08.340Z,57.21
2018-05-11T05:37:34.555Z,57.09
2018-05-11T05:40:00.806Z,57.38
2018-05-11T05:42:27.022Z,57.19
2018-05-11T05:44:53.272Z,57.04
2018-05-11T05:47:19.496Z,56.61
2018-05-11T05:49:45.719Z,56.37
2018-05-11T05:52:11.974Z,56.69
2018-05-11T05:54:38.195Z,56.57
2018-05-11T05:57:04.434Z,56.46
2018-05-11T05:59:31.240Z,56.40
2018-05-11T06:01:57.515Z,56.29
2018-05-11T06:04:23.726Z,56.28
2018-05-11T06:06:50.009Z,56.54
2018-05-11T06:09:16.231Z,56.27
2018-05-11T06:11:42.447Z,55.53
2018-05-11T06:14:08.698Z,55.29
2018-05-11T06:16:34.919Z,54.98
2018-05-11T06:19:01.167Z,54.61
2018-05-11T06:21:27.393Z,55.04
2018-05-11T06:23:53.638Z,54.69
2018-05-11T06:26:19.871Z,54.76
2018-05-11T06:28:46.135Z,54.63
2018-05-11T06:31:12.354Z,55.18
2018-05-11T06:33:38.631Z,54.38
2018-05-11T06:36:04.859Z,54.64
2018-05-11T06:38:31.086Z,54.55
2018-05-11T06:40:57.333Z,54.31
2018-05-11T06:43:23.571Z,53.72
2018-05-11T06:45:49.824Z,53.54
2018-05-11T06:48:16.047Z,53.07
2018-05-11T06:50:42.298Z,52.16
2018-05-11T06:53:08.522Z,52.04
2018-05-11T06:55:34.791Z,51.68
2018-05-11T06:58:01.107Z,51.32
2018-05-11T07:00:27.339Z,51.72
2018-05-11T07:02:53.591Z,51.15
2018-05-11T07:05:19.808Z,50.28
2018-05-11T07:07:46.092Z,50.31
2018-05-11T07:10:12.294Z,49.55
2018-05-11T07:12:38.543Z,49.38
2018-05-11T07:15:04.794Z,49.37
2018-05-11T07:17:31.047Z,48.81
2018-05-11T07:19:57.267Z,48.61
2018-05-11T07:22:23.495Z,48.11
2018-05-11T07:24:49.746Z,47.74
2018-05-11T07:27:15.979Z,47.72
2018-05-11T07:29:42.227Z,48.77
2018-05-11T07:32:08.447Z,49.15
2018-05-11T07:34:34.699Z,48.44
2018-05-11T07:37:00.934Z,49.17
2018-05-11T07:39:27.190Z,48.49
2018-05-11T07:41:53.463Z,49.06
2018-05-11T07:44:19.722Z,49.22
2018-05-11T07:46:45.943Z,49.01
2018-05-11T07:49:12.183Z,48.98
2018-05-11T07:51:38.475Z,49.62
2018-05-11T07:54:04.699Z,49.45
2018-05-11T07:56:30.958Z,49.78
2018-05-11T07:58:57.183Z,49.78
2018-05-11T08:01:23.431Z,49.65
2018-05-11T08:03:49.743Z,49.87
2018-05-11T08:06:15.923Z,49.70
2018-05-11T08:08:42.162Z,49.92
2018-05-11T08:11:08.437Z,50.47
2018-05-11T08:13:34.661Z,50.14
2018-05-11T08:16:00.899Z,50.58
2018-05-11T08:18:27.126Z,51.04
2018-05-11T08:20:53.347Z,50.98
2018-05-11T08:23:19.595Z,50.47
2018-05-11T08:25:45.812Z,50.85
2018-05-11T08:28:12.067Z,51.20
2018-05-11T08:30:38.346Z,51.13
2018-05-11T08:33:04.741Z,51.56
2018-05-11T08:35:30.921Z,51.99
2018-05-11T08:37:57.139Z,51.90
2018-05-11T08:40:23.462Z,51.10
2018-05-11T08:42:49.682Z,50.70
2018-05-11T08:45:15.918Z,50.17
2018-05-11T08:47:42.142Z,49.99
2018-05-11T08:50:08.390Z,50.72
2018-05-11T08:52:34.610Z,50.22
2018-05-11T08:55:00.895Z,49.58
2018-05-11T08:57:27.139Z,49.66
2018-05-11T08:59:53.354Z,48.99
2018-05-11T09:02:19.618Z,48.10
2018-05-11T09:04:45.862Z,46.56
2018-05-11T09:07:12.111Z,42.36
2018-05-11T09:09:38.332Z,42.47
2018-05-11T09:12:04.591Z,41.74
2018-05-11T09:14:30.846Z,41.32
2018-05-11T09:16:57.109Z,41.66
2018-05-11T09:19:23.386Z,41.04
2018-05-11T09:21:49.618Z,40.67
2018-05-11T09:24:15.871Z,40.87
2018-05-11T09:26:42.197Z,40.67
2018-05-11T09:29:08.479Z,40.21
2018-05-11T09:31:34.706Z,39.09
2018-05-11T09:34:00.961Z,40.39
2018-05-11T09:36:27.198Z,39.93
2018-05-11T09:38:53.461Z,40.90
2018-05-11T09:41:19.677Z,41.86
2018-05-11T09:43:45.911Z,43.34
2018-05-11T09:46:12.166Z,43.53
2018-05-11T09:48:38.397Z,43.41
2018-05-11T09:51:04.644Z,43.17
2018-05-11T09:53:30.925Z,42.52
2018-05-11T09:55:57.178Z,43.00
2018-05-11T09:58:23.405Z,43.25
2018-05-11T10:00:49.742Z,43.32
2018-05-11T10:03:15.935Z,43.46
2018-05-11T10:05:42.168Z,42.78
2018-05-11T10:08:08.422Z,42.22
2018-05-11T10:10:34.656Z,40.31
2018-05-11T10:13:00.912Z,40.43
2018-05-11T10:15:27.142Z,39.46
2018-05-11T10:17:53.386Z,37.91
2018-05-11T10:20:19.620Z,37.40
2018-05-11T10:22:45.863Z,37.40
2018-05-11T10:25:12.127Z,36.78
2018-05-11T10:27:38.352Z,35.49
2018-05-11T10:30:04.623Z,35.57
2018-05-11T10:32:30.845Z,34.17
2018-05-11T10:34:57.090Z,32.75
2018-05-11T10:37:23.322Z,31.99
2018-05-11T10:39:49.658Z,32.79
2018-05-11T10:42:15.810Z,32.95
2018-05-11T10:44:42.041Z,33.03
2018-05-11T10:47:08.287Z,32.15
2018-05-11T10:49:34.531Z,31.46
2018-05-11T10:52:00.783Z,31.25
2018-05-11T10:54:27.026Z,31.65
2018-05-11T10:56:53.359Z,32.20
2018-05-11T10:59:19.590Z,32.86
2018-05-11T11:01:45.852Z,32.99
2018-05-11T11:04:12.099Z,33.28
2018-05-11T11:06:38.335Z,32.73
2018-05-11T11:09:04.611Z,33.93
2018-05-11T11:11:30.867Z,35.23
2018-05-11T11:13:57.093Z,35.16
2018-05-11T11:16:23.421Z,33.61
2018-05-11T11:18:49.662Z,30.80
2018-05-11T11:21:15.886Z,29.74
2018-05-11T11:23:42.151Z,30.76
2018-05-11T11:26:08.374Z,31.92
2018-05-11T11:28:34.618Z,32.26
2018-05-11T11:31:00.843Z,32.79
2018-05-11T11:33:27.090Z,33.47
2018-05-11T11:35:53.448Z,34.25
2018-05-11T11:38:19.741Z,34.96
2018-05-11T11:40:46.055Z,35.55
2018-05-11T11:43:12.277Z,34.88
2018-05-11T11:45:38.542Z,34.76
2018-05-11T11:48:04.771Z,34.77
2018-05-11T11:50:31.021Z,34.39
2018-05-11T11:52:57.247Z,33.93
2018-05-11T11:55:23.510Z,34.99
2018-05-11T11:57:49.731Z,35.74
2018-05-11T12:00:16.016Z,36.91
2018-05-11T12:02:42.262Z,37.82
2018-05-11T12:05:08.495Z,37.81
2018-05-11T12:07:34.762Z,38.28
2018-05-11T12:10:00.998Z,38.99
2018-05-11T12:12:27.250Z,39.39
2018-05-11T12:14:53.482Z,40.22
2018-05-11T12:17:19.740Z,39.00
2018-05-11T12:19:45.978Z,39.67
2018-05-11T12:22:12.246Z,39.72
2018-05-11T12:24:38.501Z,40.02
2018-05-11T12:27:04.742Z,41.14
2018-05-11T12:29:31.031Z,41.62
2018-05-11T12:31:57.258Z,41.76
2018-05-11T12:34:23.596Z,42.14
2018-05-11T12:36:49.826Z,42.96
2018-05-11T12:39:16.102Z,43.71
2018-05-11T12:41:42.354Z,43.46
2018-05-11T12:44:08.627Z,43.62
2018-05-11T12:46:34.955Z,43.27
2018-05-11T12:49:01.134Z,43.21
2018-05-11T12:51:27.469Z,42.78
2018-05-11T12:53:53.714Z,42.44
2018-05-11T12:56:19.966Z,42.36
2018-05-11T12:58:46.208Z,41.91
2018-05-11T13:01:12.474Z,42.33
2018-05-11T13:03:38.723Z,42.07
2018-05-11T13:06:05.011Z,42.75
2018-05-11T13:08:31.239Z,42.45
2018-05-11T13:10:57.499Z,43.52
2018-05-11T13:13:23.759Z,42.56
2018-05-11T13:15:50.003Z,42.42
2018-05-11T13:18:16.259Z,42.12
2018-05-11T13:20:42.552Z,41.91
2018-05-11T13:23:08.811Z,42.58
2018-05-11T13:25:35.052Z,41.83
2018-05-11T13:28:01.358Z,39.52
2018-05-11T13:30:27.691Z,39.55
2018-05-11T13:32:53.870Z,39.37
2018-05-11T13:35:20.146Z,38.33
2018-05-11T13:37:46.393Z,39.24
2018-05-11T13:40:12.667Z,40.10
2018-05-11T13:42:38.896Z,39.58
2018-05-11T13:45:05.149Z,38.53
2018-05-11T13:47:31.382Z,38.53
2018-05-11T13:49:57.618Z,38.37
2018-05-11T13:52:23.895Z,38.18
2018-05-11T13:54:50.155Z,38.16
2018-05-11T13:57:16.410Z,37.96
2018-05-11T13:59:42.634Z,37.94
2018-05-11T14:02:08.891Z,37.79
2018-05-11T14:04:35.132Z,37.85
2018-05-11T14:07:01.423Z,36.27
2018-05-11T14:09:27.650Z,36.03
2018-05-11T14:11:53.874Z,34.02
2018-05-11T14:14:20.127Z,31.48
2018-05-11T14:16:46.354Z,29.74
2018-05-11T14:19:12.607Z,31.17
2018-05-11T14:21:38.849Z,32.05
2018-05-11T14:24:05.119Z,31.54
2018-05-11T14:26:31.418Z,32.53
2018-05-11T14:28:57.726Z,33.79
2018-05-11T14:31:24.007Z,34.99
2018-05-11T14:33:50.239Z,36.60
2018-05-11T14:36:16.534Z,37.18
2018-05-11T14:38:42.765Z,36.12
2018-05-11T14:41:09.011Z,36.22
2018-05-11T14:43:35.233Z,35.83
2018-05-11T14:46:01.483Z,36.04
2018-05-11T14:48:27.975Z,34.43
2018-05-11T14:50:54.576Z,31.51
2018-05-11T14:53:21.075Z,29.95
2018-05-11T14:55:47.572Z,29.52
2018-05-11T14:58:14.126Z,27.95
2018-05-11T15:00:40.735Z,27.70
2018-05-11T15:03:07.307Z,28.31
2018-05-11T15:05:33.871Z,27.78
2018-05-11T15:08:00.427Z,28.96
2018-05-11T15:10:26.954Z,31.89
2018-05-11T15:12:53.477Z,33.26
2018-05-11T15:15:20.035Z,34.00
2018-05-11T15:17:46.560Z,35.08
2018-05-11T15:20:13.288Z,35.50
2018-05-11T15:22:39.566Z,36.32
2018-05-11T15:25:05.839Z,37.02
2018-05-11T15:27:32.165Z,37.65
2018-05-11T15:29:58.414Z,37.23
2018-05-11T15:32:24.710Z,39.35
2018-05-11T15:34:51.077Z,40.16
2018-05-11T15:37:17.326Z,39.70
2018-05-11T15:39:43.716Z,39.53
2018-05-11T15:42:09.971Z,39.33
2018-05-11T15:44:36.205Z,40.02
2018-05-11T15:47:02.542Z,40.22
2018-05-11T15:49:28.779Z,40.79
2018-05-11T15:51:55.027Z,40.56
2018-05-11T15:54:21.256Z,41.16
2018-05-11T15:56:47.510Z,41.28
2018-05-11T15:59:13.735Z,40.86
2018-05-11T16:01:40.142Z,41.73
2018-05-11T16:04:06.417Z,42.47
2018-05-11T16:06:32.734Z,41.86
2018-05-11T16:08:59.097Z,42.40
2018-05-11T16:11:25.334Z,43.02
2018-05-11T16:13:51.594Z,42.72
2018-05-11T16:16:17.833Z,42.81
2018-05-11T16:18:44.086Z,43.16
2018-05-11T16:21:10.450Z,44.27
2018-05-11T16:23:36.706Z,44.21
2018-05-11T16:26:02.978Z,43.64
2018-05-11T16:28:29.314Z,42.43
2018-05-11T16:30:55.577Z,43.38
2018-05-11T16:33:21.922Z,43.56
2018-05-11T16:35:48.214Z,43.94
2018-05-11T16:38:14.447Z,44.19
2018-05-11T16:40:40.947Z,44.49
2018-05-11T16:43:07.178Z,44.96
2018-05-11T16:45:33.434Z,44.82
2018-05-11T16:47:59.853Z,45.30
2018-05-11T16:50:26.103Z,45.06
2018-05-11T16:52:52.344Z,45.98
2018-05-11T16:55:18.897Z,45.59
2018-05-11T16:57:45.285Z,46.22
2018-05-11T17:00:11.594Z,47.12
2018-05-11T17:02:46.079Z,47.34
2018-05-11T17:05:12.428Z,47.57
2018-05-11T17:07:38.702Z,47.62
2018-05-11T17:10:05.013Z,47.55
2018-05-11T17:12:31.279Z,47.68
2018-05-11T17:14:57.595Z,47.83
2018-05-11T17:17:23.870Z,47.66
2018-05-11T17:19:50.128Z,47.94
2018-05-11T17:22:16.384Z,48.30
2018-05-11T17:24:42.702Z,48.55
2018-05-11T17:27:09.110Z,48.32
2018-05-11T17:29:35.428Z,48.64
2018-05-11T17:32:01.698Z,48.85
2018-05-11T17:34:27.945Z,48.75
2018-05-11T17:36:54.205Z,48.73
2018-05-11T17:39:20.434Z,49.05
2018-05-11T17:41:46.731Z,49.27
2018-05-11T17:44:12.978Z,49.44
2018-05-11T17:46:39.244Z,49.70
2018-05-11T17:49:05.487Z,50.07
2018-05-11T17:51:31.770Z,50.03
2018-05-11T17:53:58.015Z,50.13
2018-05-11T17:56:24.251Z,50.37
2018-05-11T17:58:50.510Z,50.62
2018-05-11T18:01:16.771Z,50.85
2018-05-11T18:03:43.035Z,50.95
2018-05-11T18:06:09.279Z,51.25
2018-05-11T18:08:35.542Z,51.18
2018-05-11T18:11:01.791Z,51.49
2018-05-11T18:13:28.020Z,51.90
2018-05-11T18:15:54.329Z,51.77
2018-05-11T18:18:20.543Z,52.04
2018-05-11T18:20:46.819Z,52.12
2018-05-11T18:23:13.067Z,52.26
2018-05-11T18:25:39.322Z,52.45
2018-05-11T18:28:05.551Z,52.71
2018-05-11T18:30:31.823Z,52.98
2018-05-11T18:32:58.075Z,53.08
2018-05-11T18:35:24.303Z,53.39
2018-05-11T18:37:50.557Z,53.51
2018-05-11T18:40:16.901Z,53.80
2018-05-11T18:42:43.086Z,54.17
2018-05-11T18:45:09.331Z,54.46
2018-05-11T18:47:35.863Z,54.69
2018-05-11T18:50:02.138Z,54.59
2018-05-11T18:52:28.485Z,55.31
2018-05-11T18:54:54.714Z,55.61
2018-05-11T18:57:20.975Z,55.52
2018-05-11T18:59:47.241Z,55.79
2018-05-11T19:02:13.465Z,55.76
2018-05-11T19:04:39.698Z,55.76
2018-05-11T19:07:06.008Z,55.64
2018-05-11T19:09:32.251Z,56.10
2018-05-11T19:11:58.490Z,56.30
2018-05-11T19:14:24.744Z,56.38
2018-05-11T19:16:50.965Z,56.01
2018-05-11T19:19:17.228Z,56.58
2018-05-11T19:21:43.517Z,56.47
2018-05-11T19:24:09.729Z,56.54
2018-05-11T19:26:36.035Z,56.37
2018-05-11T19:29:02.279Z,56.44
2018-05-11T19:31:28.596Z,56.37
2018-05-11T19:33:54.830Z,56.35
2018-05-11T19:36:21.094Z,56.37
2018-05-11T19:38:47.345Z,56.17
2018-05-11T19:41:13.566Z,56.27
2018-05-11T19:43:39.806Z,56.24
2018-05-11T19:46:06.035Z,56.07
2018-05-11T19:48:32.290Z,55.96
2018-05-11T19:50:58.510Z,56.10
2018-05-11T19:53:24.778Z,56.17
2018-05-11T19:55:51.006Z,56.14
2018-05-11T19:58:17.258Z,56.44
2018-05-11T20:00:43.477Z,56.40
2018-05-11T20:03:09.698Z,56.45
2018-05-11T20:05:35.987Z,56.16
2018-05-11T20:08:02.308Z,56.48
2018-05-11T20:10:28.692Z,56.48
2018-05-11T20:12:54.914Z,56.52
2018-05-11T20:15:21.176Z,56.48
2018-05-11T20:17:47.404Z,56.72
2018-05-11T20:20:13.658Z,56.51
2018-05-11T20:22:39.878Z,56.40
2018-05-11T20:25:06.163Z,56.16
2018-05-11T20:27:32.378Z,56.28
2018-05-11T20:29:59.508Z,56.21
2018-05-11T20:32:25.801Z,56.74
2018-05-11T20:34:52.027Z,56.85
2018-05-11T20:37:18.287Z,56.78
2018-05-11T20:39:44.542Z,56.80
2018-05-11T20:42:10.865Z,56.90
2018-05-11T20:44:37.114Z,56.79
2018-05-11T20:47:03.412Z,57.27
2018-05-11T20:49:29.681Z,57.18
2018-05-11T20:51:56.127Z,56.91
2018-05-11T20:54:22.383Z,57.04
2018-05-11T20:56:48.878Z,57.20
2018-05-11T20:59:15.135Z,57.42
2018-05-11T21:01:41.401Z,57.59
2018-05-11T21:04:07.779Z,57.67
2018-05-11T21:06:34.075Z,57.74
2018-05-11T21:09:00.364Z,57.80
2018-05-11T21:11:26.649Z,57.74
2018-05-11T21:13:52.868Z,58.02
2018-05-11T21:16:19.122Z,58.02
2018-05-11T21:18:45.399Z,58.31
2018-05-11T21:21:11.762Z,58.78
2018-05-11T21:23:38.008Z,59.03
2018-05-11T21:26:04.381Z,59.34
2018-05-11T21:28:30.673Z,59.43
2018-05-11T21:30:57.035Z,59.57
2018-05-11T21:33:23.396Z,59.75
2018-05-11T21:35:49.587Z,59.83
2018-05-11T21:38:15.835Z,60.09
2018-05-11T21:40:42.059Z,60.25
2018-05-11T21:43:09.179Z,60.58
2018-05-11T21:45:35.561Z,61.00
2018-05-11T21:48:01.831Z,61.31
2018-05-11T21:50:28.074Z,61.41
2018-05-11T21:52:54.662Z,61.37
2018-05-11T21:55:20.904Z,61.55
2018-05-11T21:57:47.286Z,61.77
2018-05-11T22:00:13.660Z,61.75
2018-05-11T22:02:39.855Z,61.60
2018-05-11T22:05:06.333Z,61.71
2018-05-11T22:07:32.773Z,61.83
2018-05-11T22:09:59.249Z,61.97
2018-05-11T22:12:25.536Z,62.36
2018-05-11T22:14:51.836Z,62.61
2018-05-11T22:17:18.272Z,62.65
2018-05-11T22:19:44.534Z,63.12
2018-05-11T22:22:10.890Z,63.20
2018-05-11T22:24:37.299Z,63.54
2018-05-11T22:27:03.608Z,63.49
2018-05-11T22:29:30.027Z,63.70
2018-05-11T22:31:56.347Z,63.82
2018-05-11T22:34:22.673Z,63.88
2018-05-11T22:36:49.086Z,64.10
2018-05-11T22:39:15.314Z,64.19
2018-05-11T22:41:42.759Z,64.42
2018-05-11T22:44:08.999Z,64.36
2018-05-11T22:46:35.230Z,64.43
2018-05-11T22:49:01.499Z,64.56
2018-05-11T22:51:28.060Z,64.70
2018-05-11T22:53:54.335Z,64.79
2018-05-11T22:56:20.681Z,64.77
2018-05-11T22:58:47.063Z,64.63
2018-05-11T23:01:13.287Z,64.69
2018-05-11T23:03:40.009Z,64.97
2018-05-11T23:06:06.190Z,65.22
2018-05-11T23:08:32.589Z,65.29
2018-05-11T23:10:59.011Z,65.47
2018-05-11T23:13:25.275Z,65.36
2018-05-11T23:15:51.938Z,65.44
2018-05-11T23:18:18.184Z,65.63
2018-05-11T23:20:44.476Z,65.62
2018-05-11T23:23:10.829Z,65.58
2018-05-11T23:25:37.078Z,65.62
2018-05-11T23:28:03.667Z,65.78
2018-05-11T23:30:29.921Z,65.96
2018-05-11T23:32:56.208Z,66.02
2018-05-11T23:35:22.634Z,66.10
2018-05-11T23:37:48.886Z,65.74
2018-05-11T23:40:15.395Z,65.69
2018-05-11T23:42:41.682Z,65.72
2018-05-11T23:45:08.215Z,65.77
2018-05-11T23:47:34.518Z,65.70
2018-05-11T23:50:00.848Z,65.54
2018-05-11T23:52:27.199Z,65.80
2018-05-11T23:54:53.453Z,66.13
2018-05-11T23:57:20.065Z,66.33
2018-05-11T23:59:46.318Z,66.23
